createdAt,value
2023-04-07T00:01:57.327Z,3.10
2023-04-07T00:04:25.968Z,1.95
2023-04-07T00:06:54.525Z,2.13
2023-04-07T00:09:22.969Z,1.92
2023-04-07T00:11:52.152Z,2.30
2023-04-07T00:14:20.408Z,1.65
2023-04-07T00:16:48.704Z,3.72
2023-04-07T00:19:17.170Z,3.00
2023-04-07T00:21:45.701Z,2.33
2023-04-07T00:24:20.948Z,2.47
2023-04-07T00:26:52.397Z,3.00
2023-04-07T00:29:20.740Z,2.55
2023-04-07T00:31:48.975Z,1.55
2023-04-07T00:34:17.298Z,3.30
2023-04-07T00:36:45.800Z,3.38
2023-04-07T00:39:14.099Z,3.33
2023-04-07T00:41:42.638Z,2.88
2023-04-07T00:44:11.064Z,2.30
2023-04-07T00:46:39.656Z,2.72
2023-04-07T00:49:11.076Z,1.20
2023-04-07T00:51:39.820Z,2.85
2023-04-07T00:54:08.201Z,1.40
2023-04-07T00:56:36.699Z,2.10
2023-04-07T00:59:08.069Z,3.10
2023-04-07T01:02:05.392Z,1.45
2023-04-07T01:04:45.696Z,3.10
2023-04-07T01:07:34.112Z,2.90
2023-04-07T01:10:09.612Z,1.95
2023-04-07T01:12:53.990Z,4.28
2023-04-07T01:15:25.524Z,1.90
2023-04-07T01:18:09.955Z,3.08
2023-04-07T01:20:39.815Z,2.42
2023-04-07T01:23:09.744Z,2.67
2023-04-07T01:25:52.945Z,2.05
2023-04-07T01:28:39.420Z,1.65
2023-04-07T01:31:10.669Z,3.33
2023-04-07T01:33:41.220Z,1.83
2023-04-07T01:36:10.759Z,3.17
2023-04-07T01:38:40.208Z,2.88
2023-04-07T01:41:10.025Z,2.80
2023-04-07T01:43:41.401Z,1.80
2023-04-07T01:46:10.514Z,3.08
2023-04-07T01:48:40.919Z,4.22
2023-04-07T01:51:12.429Z,5.50
2023-04-07T01:53:41.169Z,2.55
2023-04-07T01:56:09.558Z,3.35
2023-04-07T01:58:38.122Z,4.60
2023-04-07T02:01:06.802Z,3.38
2023-04-07T02:03:45.753Z,3.10
2023-04-07T02:06:19.278Z,2.67
2023-04-07T02:08:52.353Z,4.65
2023-04-07T02:11:23.125Z,2.28
2023-04-07T02:13:53.605Z,1.90
2023-04-07T02:16:23.289Z,3.10
2023-04-07T02:18:52.021Z,5.13
2023-04-07T02:21:21.003Z,2.22
2023-04-07T02:23:49.353Z,2.50
2023-04-07T02:26:17.685Z,2.58
2023-04-07T02:28:46.504Z,2.92
2023-04-07T02:31:14.873Z,1.95
2023-04-07T02:33:43.195Z,1.33
2023-04-07T02:36:11.511Z,4.15
2023-04-07T02:38:40.064Z,3.53
2023-04-07T02:41:08.600Z,2.40
2023-04-07T02:43:37.085Z,1.50
2023-04-07T02:46:05.607Z,2.30
2023-04-07T02:48:34.009Z,3.20
2023-04-07T02:51:02.368Z,3.03
2023-04-07T02:53:30.705Z,2.42
2023-04-07T02:55:58.969Z,3.35
2023-04-07T02:58:27.256Z,3.13
2023-04-07T03:00:55.597Z,2.58
2023-04-07T03:03:24.062Z,3.63
2023-04-07T03:05:52.535Z,2.08
2023-04-07T03:08:20.817Z,5.82
2023-04-07T03:10:49.126Z,2.70
2023-04-07T03:13:19.953Z,3.97
2023-04-07T03:15:48.334Z,3.72
2023-04-07T03:18:16.691Z,2.78
2023-04-07T03:20:45.794Z,3.95
2023-04-07T03:23:14.523Z,2.55
2023-04-07T03:25:43.090Z,2.53
2023-04-07T03:28:11.367Z,2.90
2023-04-07T03:30:39.667Z,3.78
2023-04-07T03:33:07.950Z,2.25
2023-04-07T03:35:36.485Z,2.65
2023-04-07T03:38:04.815Z,2.30
2023-04-07T03:40:34.565Z,2.88
2023-04-07T03:43:02.834Z,3.42
2023-04-07T03:45:31.370Z,2.75
2023-04-07T03:47:59.710Z,3.58
2023-04-07T03:50:28.008Z,5.43
2023-04-07T03:52:56.298Z,3.80
2023-04-07T03:55:24.604Z,2.85
2023-04-07T03:57:53.013Z,4.65
2023-04-07T04:00:21.394Z,3.42
2023-04-07T04:02:49.791Z,2.75
2023-04-07T04:05:18.239Z,1.88
2023-04-07T04:07:46.827Z,2.17
2023-04-07T04:10:15.154Z,3.65
2023-04-07T04:12:43.480Z,1.73
2023-04-07T04:15:11.998Z,2.47
2023-04-07T04:17:40.351Z,3.72
2023-04-07T04:20:09.900Z,2.70
2023-04-07T04:22:38.257Z,3.08
2023-04-07T04:25:07.167Z,2.88
2023-04-07T04:27:35.432Z,2.05
2023-04-07T04:30:04.523Z,4.10
2023-04-07T04:32:33.678Z,3.92
2023-04-07T04:35:02.045Z,5.07
2023-04-07T04:37:30.410Z,3.65
2023-04-07T04:39:58.666Z,2.03
2023-04-07T04:42:28.777Z,4.53
2023-04-07T04:44:57.184Z,2.28
2023-04-07T04:47:25.641Z,2.45
2023-04-07T04:49:53.995Z,1.95
2023-04-07T04:52:22.685Z,1.90
2023-04-07T04:54:51.397Z,1.75
2023-04-07T04:57:19.698Z,2.45
2023-04-07T04:59:48.206Z,3.50
2023-04-07T05:02:16.693Z,4.68
2023-04-07T05:04:45.253Z,3.50
2023-04-07T05:07:13.733Z,4.40
2023-04-07T05:09:42.243Z,3.70
2023-04-07T05:12:10.550Z,3.65
2023-04-07T05:14:38.788Z,3.85
2023-04-07T05:17:07.040Z,3.03
2023-04-07T05:19:35.409Z,1.98
2023-04-07T05:22:03.662Z,3.15
2023-04-07T05:24:32.012Z,3.17
2023-04-07T05:27:00.274Z,3.63
2023-04-07T05:29:28.539Z,2.78
2023-04-07T05:31:56.871Z,2.78
2023-04-07T05:34:25.374Z,3.88
2023-04-07T05:36:53.799Z,2.70
2023-04-07T05:39:22.100Z,2.15
2023-04-07T05:41:50.400Z,5.57
2023-04-07T05:44:18.859Z,1.80
2023-04-07T05:46:47.529Z,2.72
2023-04-07T05:49:20.097Z,3.95
2023-04-07T05:51:49.446Z,3.13
2023-04-07T05:54:17.865Z,3.67
2023-04-07T05:56:46.533Z,3.10
2023-04-07T05:59:14.867Z,3.90
2023-04-07T06:01:44.231Z,3.42
2023-04-07T06:04:12.857Z,3.38
2023-04-07T06:06:41.243Z,2.70
2023-04-07T06:09:09.787Z,2.50
2023-04-07T06:11:38.043Z,3.15
2023-04-07T06:14:06.323Z,2.35
2023-04-07T06:16:34.598Z,2.80
2023-04-07T06:19:03.006Z,3.03
2023-04-07T06:21:31.598Z,4.18
2023-04-07T06:24:00.040Z,5.82
2023-04-07T06:26:28.610Z,4.53
2023-04-07T06:28:56.934Z,5.07
2023-04-07T06:31:25.227Z,3.83
2023-04-07T06:33:54.026Z,3.95
2023-04-07T06:36:22.649Z,3.72
2023-04-07T06:38:51.181Z,3.85
2023-04-07T06:41:19.439Z,2.67
2023-04-07T06:43:52.134Z,4.15
2023-04-07T06:46:21.278Z,4.05
2023-04-07T06:48:49.623Z,2.88
2023-04-07T06:51:17.868Z,4.05
2023-04-07T06:53:48.322Z,3.53
2023-04-07T06:56:16.853Z,4.78
2023-04-07T06:58:45.724Z,2.33
2023-04-07T07:01:14.059Z,3.75
2023-04-07T07:03:42.666Z,4.57
2023-04-07T07:06:11.955Z,2.75
2023-04-07T07:08:40.381Z,4.05
2023-04-07T07:11:08.838Z,2.25
2023-04-07T07:13:37.154Z,2.50
2023-04-07T07:16:05.648Z,4.70
2023-04-07T07:18:33.923Z,2.65
2023-04-07T07:21:02.168Z,4.18
2023-04-07T07:23:30.437Z,5.50
2023-04-07T07:25:58.798Z,6.38
2023-04-07T07:28:27.201Z,3.25
2023-04-07T07:30:55.451Z,4.47
2023-04-07T07:33:26.404Z,4.82
2023-04-07T07:35:54.734Z,2.85
2023-04-07T07:38:23.103Z,5.55
2023-04-07T07:40:51.380Z,3.65
2023-04-07T07:43:19.654Z,3.47
2023-04-07T07:45:47.878Z,3.38
2023-04-07T07:48:16.338Z,2.60
2023-04-07T07:50:45.814Z,3.00
2023-04-07T07:53:14.095Z,2.28
2023-04-07T07:55:42.482Z,2.35
2023-04-07T07:58:10.740Z,1.88
2023-04-07T08:00:38.969Z,4.40
2023-04-07T08:03:07.282Z,4.18
2023-04-07T08:05:35.734Z,3.72
2023-04-07T08:08:04.030Z,3.15
2023-04-07T08:10:32.272Z,2.35
2023-04-07T08:13:00.549Z,5.30
2023-04-07T08:15:28.800Z,2.85
2023-04-07T08:17:57.156Z,2.88
2023-04-07T08:20:25.391Z,3.38
2023-04-07T08:22:53.731Z,2.95
2023-04-07T08:25:22.136Z,2.45
2023-04-07T08:27:50.466Z,1.20
2023-04-07T08:30:18.819Z,3.13
2023-04-07T08:32:47.309Z,2.47
2023-04-07T08:35:15.604Z,3.40
2023-04-07T08:37:45.356Z,3.97
2023-04-07T08:40:14.386Z,2.95
2023-04-07T08:42:48.306Z,4.35
2023-04-07T08:45:20.034Z,1.77
2023-04-07T08:47:49.044Z,3.30
2023-04-07T08:50:19.211Z,2.28
2023-04-07T08:52:54.231Z,3.58
2023-04-07T08:55:22.613Z,2.20
2023-04-07T08:57:51.191Z,3.40
2023-04-07T09:00:20.160Z,2.13
2023-04-07T09:02:50.288Z,2.67
2023-04-07T09:05:18.695Z,2.03
2023-04-07T09:07:47.215Z,4.43
2023-04-07T09:10:15.493Z,3.28
2023-04-07T09:12:43.819Z,4.07
2023-04-07T09:15:12.150Z,3.28
2023-04-07T09:17:40.574Z,4.38
2023-04-07T09:20:09.342Z,2.78
2023-04-07T09:22:48.566Z,4.90
2023-04-07T09:25:27.014Z,2.30
2023-04-07T09:28:02.921Z,3.47
2023-04-07T09:30:33.183Z,3.00
2023-04-07T09:33:02.643Z,4.18
2023-04-07T09:35:31.490Z,1.83
2023-04-07T09:38:05.613Z,1.88
2023-04-07T09:40:34.369Z,4.20
2023-04-07T09:43:05.463Z,5.35
2023-04-07T09:45:37.061Z,4.50
2023-04-07T09:48:10.098Z,4.68
2023-04-07T09:50:41.917Z,3.60
2023-04-07T09:53:10.214Z,3.30
2023-04-07T09:55:41.386Z,5.95
2023-04-07T09:58:10.576Z,3.72
2023-04-07T10:00:39.230Z,4.35
2023-04-07T10:03:09.628Z,2.25
2023-04-07T10:05:39.897Z,2.35
2023-04-07T10:08:08.473Z,3.03
2023-04-07T10:10:37.927Z,4.43
2023-04-07T10:13:07.784Z,2.22
2023-04-07T10:15:37.869Z,3.47
2023-04-07T10:18:09.903Z,4.22
2023-04-07T10:20:45.263Z,4.63
2023-04-07T10:23:26.682Z,4.40
2023-04-07T10:25:59.564Z,5.95
2023-04-07T10:28:31.018Z,3.28
2023-04-07T10:31:00.197Z,3.47
2023-04-07T10:33:50.829Z,4.32
2023-04-07T10:36:23.960Z,3.05
2023-04-07T10:39:10.426Z,3.28
2023-04-07T10:41:40.319Z,4.10
2023-04-07T10:44:10.201Z,3.33
2023-04-07T10:46:52.774Z,2.95
2023-04-07T10:49:21.886Z,3.28
2023-04-07T10:52:15.694Z,3.70
2023-04-07T10:54:43.961Z,3.88
2023-04-07T10:57:15.789Z,2.58
2023-04-07T11:00:12.834Z,5.65
2023-04-07T11:02:41.897Z,3.40
2023-04-07T11:05:20.830Z,5.05
2023-04-07T11:07:52.180Z,3.65
2023-04-07T11:10:21.288Z,4.60
2023-04-07T11:13:07.787Z,3.45
2023-04-07T11:15:40.773Z,5.13
2023-04-07T11:18:21.457Z,4.90
2023-04-07T11:20:54.015Z,2.25
2023-04-07T11:23:24.895Z,4.25
2023-04-07T11:25:54.930Z,3.97
2023-04-07T11:28:23.200Z,5.35
2023-04-07T11:30:53.670Z,1.20
2023-04-07T11:33:28.085Z,4.05
2023-04-07T11:35:58.858Z,2.53
2023-04-07T11:38:29.423Z,5.03
2023-04-07T11:40:58.517Z,4.78
2023-04-07T11:43:28.947Z,2.50
2023-04-07T11:46:17.578Z,3.17
2023-04-07T11:48:48.165Z,4.20
2023-04-07T11:51:28.851Z,2.58
2023-04-07T11:53:57.826Z,2.50
2023-04-07T11:56:26.079Z,6.57
2023-04-07T11:58:55.905Z,4.10
2023-04-07T12:01:28.019Z,2.83
2023-04-07T12:04:00.879Z,2.72
2023-04-07T12:06:35.735Z,4.65
2023-04-07T12:09:04.368Z,2.65
2023-04-07T12:11:33.996Z,4.32
2023-04-07T12:14:05.732Z,3.03
2023-04-07T12:16:38.885Z,3.00
2023-04-07T12:19:07.165Z,3.17
2023-04-07T12:21:35.449Z,2.33
2023-04-07T12:24:03.834Z,2.72
2023-04-07T12:26:32.144Z,3.63
2023-04-07T12:29:05.904Z,3.55
2023-04-07T12:31:34.463Z,2.97
2023-04-07T12:34:02.785Z,3.33
2023-04-07T12:36:31.100Z,3.85
2023-04-07T12:38:59.923Z,4.22
2023-04-07T12:41:28.542Z,4.43
2023-04-07T12:43:56.805Z,2.67
2023-04-07T12:46:25.197Z,2.88
2023-04-07T12:48:53.539Z,2.33
2023-04-07T12:51:22.021Z,4.30
2023-04-07T12:53:50.704Z,3.45
2023-04-07T12:56:19.248Z,4.72
2023-04-07T12:58:47.879Z,2.95
2023-04-07T13:01:16.187Z,2.88
2023-04-07T13:03:44.559Z,3.15
2023-04-07T13:06:13.065Z,4.10
2023-04-07T13:08:42.001Z,2.88
2023-04-07T13:11:10.292Z,3.72
2023-04-07T13:13:38.567Z,4.30
2023-04-07T13:16:06.998Z,3.58
2023-04-07T13:18:35.364Z,3.47
2023-04-07T13:23:53.352Z,3.72
2023-04-07T13:26:21.683Z,5.13
2023-04-07T13:28:49.973Z,2.08
2023-04-07T13:31:18.902Z,3.80
2023-04-07T13:33:47.703Z,3.83
2023-04-07T13:36:16.384Z,3.08
2023-04-07T13:38:44.634Z,3.78
2023-04-07T13:41:12.922Z,5.22
2023-04-07T13:43:41.151Z,5.97
2023-04-07T13:46:20.730Z,4.57
2023-04-07T13:48:55.487Z,3.22
2023-04-07T13:51:23.809Z,3.65
2023-04-07T13:53:52.374Z,4.78
2023-04-07T13:56:20.754Z,7.50
2023-04-07T13:58:48.974Z,4.93
2023-04-07T14:01:18.536Z,4.88
2023-04-07T14:03:50.327Z,4.07
2023-04-07T14:06:18.994Z,3.72
2023-04-07T14:08:47.550Z,4.25
2023-04-07T14:11:25.009Z,2.67
2023-04-07T14:13:54.553Z,5.68
2023-04-07T14:16:23.738Z,4.10
2023-04-07T14:18:52.447Z,4.22
2023-04-07T14:21:20.826Z,3.65
2023-04-07T14:23:49.082Z,3.33
2023-04-07T14:26:17.416Z,6.82
2023-04-07T14:28:46.000Z,4.20
2023-04-07T14:31:16.630Z,5.50
2023-04-07T14:33:45.961Z,3.55
2023-04-07T14:36:17.659Z,4.22
2023-04-07T14:38:46.360Z,5.13
2023-04-07T14:41:14.607Z,3.95
2023-04-07T14:43:43.312Z,5.43
2023-04-07T14:46:13.055Z,3.80
2023-04-07T14:48:41.568Z,5.50
2023-04-07T14:51:13.892Z,5.40
2023-04-07T14:53:43.125Z,4.78
2023-04-07T14:56:11.579Z,6.57
2023-04-07T14:58:41.383Z,4.57
2023-04-07T15:01:09.669Z,4.03
2023-04-07T15:03:38.169Z,4.05
2023-04-07T15:06:10.975Z,7.43
2023-04-07T15:08:39.852Z,4.90
2023-04-07T15:11:09.138Z,5.15
2023-04-07T15:13:37.863Z,4.47
2023-04-07T15:16:16.630Z,4.15
2023-04-07T15:18:47.971Z,5.35
2023-04-07T15:21:16.789Z,5.57
2023-04-07T15:23:45.154Z,2.97
2023-04-07T15:26:13.766Z,5.18
2023-04-07T15:28:42.102Z,7.57
2023-04-07T15:31:10.805Z,4.20
2023-04-07T15:33:40.879Z,3.53
2023-04-07T15:36:10.181Z,3.70
2023-04-07T15:38:40.144Z,3.92
2023-04-07T15:41:08.545Z,2.00
2023-04-07T15:43:38.382Z,3.58
2023-04-07T15:46:06.897Z,3.67
2023-04-07T15:48:35.207Z,4.40
2023-04-07T15:51:03.644Z,4.65
2023-04-07T15:53:32.100Z,6.25
2023-04-07T15:56:00.421Z,2.95
2023-04-07T15:58:28.778Z,3.80
2023-04-07T16:00:57.139Z,4.75
2023-04-07T16:03:25.868Z,5.05
2023-04-07T16:05:54.546Z,4.40
2023-04-07T16:08:23.510Z,3.08
2023-04-07T16:10:51.986Z,3.60
2023-04-07T16:13:20.264Z,5.10
2023-04-07T16:15:48.599Z,2.92
2023-04-07T16:18:17.116Z,3.42
2023-04-07T16:20:45.485Z,2.75
2023-04-07T16:23:13.805Z,4.57
2023-04-07T16:25:42.137Z,5.53
2023-04-07T16:28:10.562Z,3.35
2023-04-07T16:30:39.051Z,3.95
2023-04-07T16:33:07.425Z,3.05
2023-04-07T16:35:35.810Z,2.88
2023-04-07T16:38:06.896Z,2.38
2023-04-07T16:40:35.311Z,4.18
2023-04-07T16:43:03.611Z,3.38
2023-04-07T16:45:31.904Z,2.45
2023-04-07T16:48:00.653Z,4.78
2023-04-07T16:50:29.055Z,1.70
2023-04-07T16:52:58.527Z,2.85
2023-04-07T16:55:26.955Z,3.25
2023-04-07T16:57:55.201Z,2.80
2023-04-07T17:00:23.619Z,3.15
2023-04-07T17:02:52.126Z,3.40
2023-04-07T17:05:21.511Z,4.78
2023-04-07T17:07:49.856Z,3.42
2023-04-07T17:10:18.272Z,2.60
2023-04-07T17:12:52.935Z,1.63
2023-04-07T17:15:21.721Z,4.80
2023-04-07T17:17:51.105Z,2.55
2023-04-07T17:20:19.452Z,2.22
2023-04-07T17:22:49.850Z,3.67
2023-04-07T17:25:19.065Z,2.30
2023-04-07T17:27:49.080Z,2.45
2023-04-07T17:30:19.085Z,4.22
2023-04-07T17:32:48.235Z,3.13
2023-04-07T17:35:16.758Z,2.03
2023-04-07T17:37:45.290Z,3.53
2023-04-07T17:40:14.066Z,2.30
2023-04-07T17:42:43.756Z,3.70
2023-04-07T17:45:12.657Z,2.75
2023-04-07T17:47:41.456Z,2.42
2023-04-07T17:50:10.227Z,5.70
2023-04-07T17:52:38.611Z,2.85
2023-04-07T17:55:08.900Z,2.80
2023-04-07T17:57:37.735Z,1.83
2023-04-07T18:00:07.644Z,3.72
2023-04-07T18:02:36.227Z,1.90
2023-04-07T18:05:07.866Z,4.30
2023-04-07T18:07:37.341Z,5.22
2023-04-07T18:10:06.107Z,5.32
2023-04-07T18:12:34.687Z,2.78
2023-04-07T18:15:03.647Z,4.70
2023-04-07T18:17:32.103Z,4.55
2023-04-07T18:20:00.679Z,3.80
2023-04-07T18:22:29.341Z,4.95
2023-04-07T18:24:57.725Z,1.85
2023-04-07T18:27:28.786Z,4.03
2023-04-07T18:29:57.237Z,4.22
2023-04-07T18:32:25.816Z,3.53
2023-04-07T18:34:57.135Z,2.70
2023-04-07T18:37:25.456Z,3.42
2023-04-07T18:39:54.662Z,4.40
2023-04-07T18:42:23.141Z,5.13
2023-04-07T18:44:51.448Z,2.75
2023-04-07T18:47:19.812Z,2.63
2023-04-07T18:49:48.269Z,3.67
2023-04-07T18:52:16.621Z,1.73
2023-04-07T18:54:45.925Z,1.52
2023-04-07T18:57:14.227Z,2.35
2023-04-07T18:59:42.528Z,1.70
2023-04-07T19:02:10.850Z,2.22
2023-04-07T19:04:39.238Z,4.47
2023-04-07T19:07:07.802Z,3.25
2023-04-07T19:09:37.622Z,2.67
2023-04-07T19:12:05.945Z,2.42
2023-04-07T19:14:34.200Z,2.45
2023-04-07T19:17:03.265Z,2.58
2023-04-07T19:19:32.334Z,3.38
2023-04-07T19:22:00.615Z,1.25
2023-04-07T19:24:28.965Z,2.45
2023-04-07T19:26:57.791Z,1.55
2023-04-07T19:29:26.008Z,1.35
2023-04-07T19:31:56.485Z,2.88
2023-04-07T19:34:24.934Z,1.27
2023-04-07T19:36:53.261Z,1.40
2023-04-07T19:39:21.780Z,2.03
2023-04-07T19:41:50.051Z,2.08
2023-04-07T19:44:19.184Z,1.55
2023-04-07T19:46:47.782Z,2.53
2023-04-07T19:49:16.925Z,1.65
2023-04-07T19:51:45.347Z,2.45
2023-04-07T19:54:14.075Z,0.63
2023-04-07T19:56:42.550Z,0.40
2023-04-07T19:59:10.834Z,0.45
2023-04-07T20:01:39.787Z,0.98
2023-04-07T20:04:08.261Z,1.00
2023-04-07T20:06:39.906Z,0.75
2023-04-07T20:09:08.345Z,1.55
2023-04-07T20:11:36.572Z,0.65
2023-04-07T20:14:04.843Z,1.40
2023-04-07T20:16:33.541Z,2.10
2023-04-07T20:19:01.941Z,0.70
2023-04-07T20:21:30.707Z,0.95
2023-04-07T20:23:59.213Z,0.32
2023-04-07T20:26:28.108Z,0.30
2023-04-07T20:28:56.504Z,2.70
2023-04-07T20:31:24.832Z,0.50
2023-04-07T20:33:53.130Z,0.95
2023-04-07T20:36:21.813Z,0.43
2023-04-07T20:38:50.351Z,0.75
2023-04-07T20:41:19.000Z,0.40
2023-04-07T20:43:47.697Z,0.40
2023-04-07T20:46:16.012Z,0.45
2023-04-07T20:48:44.539Z,0.30
2023-04-07T20:51:13.139Z,0.50
2023-04-07T20:53:41.854Z,0.38
2023-04-07T20:56:10.498Z,1.00
2023-04-07T20:58:39.053Z,0.40
2023-04-07T21:01:07.398Z,0.73
2023-04-07T21:03:37.341Z,0.63
2023-04-07T21:06:05.768Z,0.40
2023-04-07T21:08:34.045Z,0.45
2023-04-07T21:11:02.300Z,0.20
2023-04-07T21:13:30.697Z,1.23
2023-04-07T21:16:00.212Z,0.95
2023-04-07T21:18:28.910Z,0.43
2023-04-07T21:21:02.950Z,1.27
2023-04-07T21:23:32.714Z,0.82
2023-04-07T21:26:04.733Z,0.47
2023-04-07T21:28:33.120Z,0.40
2023-04-07T21:31:02.121Z,0.30
2023-04-07T21:33:30.499Z,0.73
2023-04-07T21:36:00.538Z,0.40
2023-04-07T21:38:29.383Z,0.57
2023-04-07T21:40:58.452Z,0.45
2023-04-07T21:43:29.638Z,0.40
2023-04-07T21:45:58.145Z,0.40
2023-04-07T21:48:26.534Z,0.85
2023-04-07T21:50:54.902Z,0.40
2023-04-07T21:53:23.188Z,0.40
2023-04-07T21:55:52.390Z,0.40
2023-04-07T21:58:20.743Z,0.38
2023-04-07T22:00:49.135Z,0.70
2023-04-07T22:03:17.744Z,0.40
2023-04-07T22:05:49.763Z,0.40
2023-04-07T22:08:18.462Z,0.82
2023-04-07T22:10:47.096Z,0.43
2023-04-07T22:13:15.409Z,0.55
2023-04-07T22:15:43.736Z,0.30
2023-04-07T22:18:13.477Z,1.30
2023-04-07T22:20:42.214Z,0.20
2023-04-07T22:23:10.538Z,0.60
2023-04-07T22:25:38.788Z,0.75
2023-04-07T22:28:07.073Z,0.30
2023-04-07T22:30:35.470Z,0.30
2023-04-07T22:33:03.878Z,0.40
2023-04-07T22:35:32.572Z,0.40
2023-04-07T22:38:00.933Z,0.93
2023-04-07T22:40:29.272Z,0.80
2023-04-07T22:42:57.608Z,0.35
2023-04-07T22:45:26.043Z,0.40
2023-04-07T22:47:54.445Z,0.40
2023-04-07T22:50:22.910Z,0.57
2023-04-07T22:52:51.351Z,0.35
2023-04-07T22:55:19.759Z,0.50
2023-04-07T22:57:48.149Z,0.30
2023-04-07T23:00:16.612Z,0.50
2023-04-07T23:02:45.158Z,0.30
2023-04-07T23:05:13.608Z,0.30
2023-04-07T23:07:41.875Z,0.40
2023-04-07T23:10:10.467Z,0.25
2023-04-07T23:12:38.828Z,0.28
2023-04-07T23:15:07.539Z,0.30
2023-04-07T23:17:35.878Z,1.48
2023-04-07T23:20:04.414Z,0.30
2023-04-07T23:22:33.019Z,0.60
2023-04-07T23:25:01.936Z,0.40
2023-04-07T23:27:30.268Z,0.82
2023-04-07T23:29:59.141Z,2.47
2023-04-07T23:32:27.500Z,0.77
2023-04-07T23:34:55.825Z,0.40
2023-04-07T23:37:24.090Z,0.85
2023-04-07T23:39:52.761Z,0.57
2023-04-07T23:42:21.088Z,0.40
2023-04-07T23:44:49.407Z,0.85
2023-04-07T23:47:17.832Z,1.55
2023-04-07T23:49:46.301Z,0.40
2023-04-07T23:52:16.049Z,0.40
2023-04-07T23:54:46.162Z,0.65
2023-04-07T23:57:14.471Z,0.40
2023-04-07T23:59:42.755Z,0.30
